Kings Mountain, NC

11:07 AM EDT on July 30, 2015 (GMT -0400)
SonRidge Farm | | Change Station
CLOSE
Current Station
Personal Weather Station
Location: Kings Mountain, NC
Elevation: 846 ft
Nearby Weather Stations

Elev 846 ft 35.27 °N, 81.41 °W | Updated 2 minutes ago

Clear
Clear
93.2 °F
Feels Like 104 °F
N
1.1
Wind Variable Wind from South

Today
High -- | Low -- °F
--% Chance of Precip.
Yesterday
High -- | Low -- °F
Precip. -- in
6:32 AM 8:30 PM
Waxing Gibbous, 99% visible
Pressure 29.97 in
Visibility 10.0 miles
Clouds Scattered Clouds 2100 ft
Heat Index 104 °F
Dew Point 75 °F
Humidity 55%
Rainfall 0.00 in
Snow Depth Not available.
UV 6 out of 12
Pollen 4.40 out of 12
Air Quality Not available.
Flu Activity Not available.
METAR KAKH 301454Z AUTO VRB03KT 10SM SCT021 30/23 A2999 RMK AO2 SLP148 T03000228 50005

More Conditions Fewer Conditions

Pressure 29.97 in
Visibility 10.0 miles
Clouds Scattered Clouds 2100 ft
Heat Index 104 °F
Dew Point 75 °F
Humidity 55%
Rainfall 0.00 in
Snow Depth Not available.
UV 6 out of 12
Pollen 4.40 out of 12
Air Quality Not available.
Flu Activity Not available.
METAR KAKH 301454Z AUTO VRB03KT 10SM SCT021 30/23 A2999 RMK AO2 SLP148 T03000228 50005

More Conditions Fewer Conditions

10-Day Weather Forecast

×

Almanac

Astronomy

Jul. 30, 2015 Rise Set
Actual Time
Civil Twilight
Nautical Twilight
Astronomical Twilight
Moon
Length of Visible Light
Length of Day
Tomorrow will be .
, % of the Moon is Illuminated

Today's Extremes

State Highs State Lows

Community

WunderPhotos

Upload Photos

1,842,402 photos uploaded!

WunderBlogs® & News

Nearby

Air Quality

  Air Quality AQ Index Pollutant
Not available.

Snow Depth

Station Depth Elevation

Earthquake Activity

City Distance Mag. Time & Date
Minimum magnitude displayed is 2.5.

Coastal Water Temperatures

Place Temperature

Stations

Nearby Weather Stations

Station Location Temp. Windchill Dew Point Humidity Wind Precip. Elev Updated Type